This is the latest recevied weather packets stored in our database for station/object OK1JIL-13. If no packets are shown the sender has not sent any weather packets the latest 10 day(s).
| Time | Temp. | Humidity | Pressure | Rain* | Wind** | Luminosity | Snow |
|---|---|---|---|---|---|---|---|
| 1777185179 | 6.11° C | 47% | 1019.6 hPa | - | - | - | - |
| 1777184579 | 5° C | 51% | 1019.5 hPa | - | - | - | - |
| 1777183979 | 5° C | 51% | 1019.3 hPa | - | - | - | - |
| 1777183380 | 5° C | 51% | 1019 hPa | - | - | - | - |
| 1777182779 | 4.44° C | 54% | 1019 hPa | - | - | - | - |
| 1777182180 | 6.11° C | 52% | 1018.6 hPa | - | - | - | - |
| 1777181579 | 3.33° C | 58% | 1018.5 hPa | - | - | - | - |
| 1777180979 | 4.44° C | 54% | 1018.5 hPa | - | - | - | - |
| 1777179780 | 3.89° C | 56% | 1018 hPa | - | - | - | - |
| 1777179179 | 3.33° C | 59% | 1017.8 hPa | - | - | - | - |
| 1777178579 | 3.33° C | 59% | 1017.6 hPa | - | - | - | - |
| 1777177980 | 3.33° C | 59% | 1017.5 hPa | - | - | - | - |
| 1777177379 | 2.78° C | 60% | 1017.4 hPa | - | - | - | - |
| 1777176780 | 2.22° C | 61% | 1017.1 hPa | - | - | - | - |
| 1777176179 | 2.78° C | 59% | 1017 hPa | - | - | - | - |
| 1777175579 | 2.78° C | 59% | 1016.9 hPa | - | - | - | - |
| 1777174979 | 2.22° C | 61% | 1016.7 hPa | - | - | - | - |
| 1777174379 | 2.78° C | 60% | 1016.6 hPa | - | - | - | - |
| 1777173779 | 3.89° C | 57% | 1016.3 hPa | - | - | - | - |
| 1777173179 | 3.33° C | 57% | 1016.1 hPa | - | - | - | - |
| 1777172579 | 3.89° C | 54% | 1015.8 hPa | - | - | - | - |
| 1777171979 | 3.89° C | 54% | 1015.7 hPa | - | - | - | - |
| 1777171379 | 4.44° C | 53% | 1015.5 hPa | - | - | - | - |
| 1777170779 | 3.33° C | 55% | 1015.3 hPa | - | - | - | - |
| 1777170179 | 3.89° C | 53% | 1015.2 hPa | - | - | - | - |
* Rain since midnight (hover to see other rain measurements)
** Current wind speed in m/s (hover to see current wind gust speed)